Time;durP1;ratioP1;P1;durP2;ratioP2;P2;SDS_P1;SDS_P2;PMS_P1;PMS_P2;Temp;Humidity;BMP_temperature;BMP_pressure;BME280_temperature;BME280_humidity;BME280_pressure;Samples;Min_cycle;Max_cycle;Signal;HPM_P1;HPM_P2
2022/04/18 00:00:16;;;;;;;4.40;3.15;;;3.70;51.20;;;;;;5030942;28;20215;-63
2022/04/18 00:02:44;;;;;;;6.32;4.00;;;3.70;51.90;;;;;;5030959;28;20194;-63
2022/04/18 00:05:13;;;;;;;5.45;3.72;;;3.60;51.70;;;;;;5030647;28;20645;-63
2022/04/18 00:07:40;;;;;;;5.07;3.67;;;3.60;51.70;;;;;;5031146;28;20191;-62
2022/04/18 00:10:08;;;;;;;4.25;3.42;;;3.60;51.70;;;;;;5030640;28;20202;-63
2022/04/18 00:12:36;;;;;;;6.05;4.15;;;3.60;51.60;;;;;;5031095;28;20199;-62
2022/04/18 00:15:04;;;;;;;8.48;4.47;;;3.50;52.20;;;;;;5029941;28;20226;-62
2022/04/18 00:17:31;;;;;;;5.85;4.18;;;3.50;52.40;;;;;;5031087;28;20207;-63
2022/04/18 00:19:58;;;;;;;13.57;3.65;;;3.50;52.00;;;;;;5030570;28;20708;-63
2022/04/18 00:22:26;;;;;;;4.40;3.20;;;3.50;52.40;;;;;;5011055;28;20203;-63
2022/04/18 00:24:54;;;;;;;4.13;3.58;;;3.50;52.60;;;;;;5011135;28;20262;-63
2022/04/18 00:27:21;;;;;;;5.05;3.35;;;3.50;52.50;;;;;;5029927;28;20198;-62
2022/04/18 00:29:49;;;;;;;6.55;4.13;;;3.40;51.90;;;;;;5030708;28;20716;-63
2022/04/18 00:32:16;;;;;;;5.05;3.50;;;3.20;52.50;;;;;;5030432;28;20191;-62
2022/04/18 00:34:44;;;;;;;5.50;4.15;;;3.20;52.90;;;;;;5030271;28;20241;-63
2022/04/18 00:37:11;;;;;;;8.38;3.75;;;3.20;53.00;;;;;;5030294;28;20191;-63
2022/04/18 00:39:40;;;;;;;6.00;4.03;;;3.20;52.80;;;;;;5030925;28;20187;-63
2022/04/18 00:42:07;;;;;;;4.00;3.10;;;3.20;52.70;;;;;;5029657;28;20234;-64
2022/04/18 00:44:35;;;;;;;5.32;3.65;;;3.20;52.70;;;;;;5030556;28;20191;-63
2022/04/18 00:47:02;;;;;;;4.80;3.63;;;3.20;52.40;;;;;;5029785;28;20195;-62
2022/04/18 00:49:30;;;;;;;4.25;3.00;;;3.20;52.30;;;;;;5030291;28;20187;-63
2022/04/18 00:51:58;;;;;;;3.83;2.70;;;3.20;52.20;;;;;;5029959;28;20589;-62
2022/04/18 00:54:27;;;;;;;5.00;3.30;;;3.20;52.60;;;;;;5030862;28;20195;-63
2022/04/18 00:56:56;;;;;;;5.45;3.70;;;3.10;52.60;;;;;;5033450;28;20202;-62
2022/04/18 00:59:24;;;;;;;10.35;4.72;;;3.10;52.80;;;;;;5033660;28;20203;-63
2022/04/18 01:01:51;;;;;;;3.58;2.83;;;3.10;53.00;;;;;;5033646;28;20226;-63
2022/04/18 01:04:19;;;;;;;4.93;3.53;;;3.10;52.80;;;;;;5033874;28;20199;-63
2022/04/18 01:06:46;;;;;;;4.53;3.55;;;3.00;52.80;;;;;;5033196;28;20246;-63
2022/04/18 01:09:14;;;;;;;4.68;3.58;;;2.90;52.90;;;;;;5033787;28;20690;-63
2022/04/18 01:11:42;;;;;;;5.32;4.20;;;2.90;53.40;;;;;;5033426;28;20252;-63
2022/04/18 01:14:11;;;;;;;7.30;4.13;;;2.90;53.40;;;;;;5033641;28;20649;-63
2022/04/18 01:16:38;;;;;;;7.03;4.35;;;2.90;53.70;;;;;;5033514;28;20179;-64
2022/04/18 01:19:05;;;;;;;5.18;3.63;;;2.90;53.30;;;;;;5033326;28;20280;-64
2022/04/18 01:21:34;;;;;;;5.00;3.30;;;2.80;53.40;;;;;;5033205;28;20631;-63
2022/04/18 01:28:58;;;;;;;4.72;4.05;;;2.80;53.40;;;;;;5033025;28;20199;-62
2022/04/18 01:29:33;;;;;;;6.20;3.90;;;2.70;54.00;;;;;;5033088;28;20178;-63
2022/04/18 01:32:00;;;;;;;4.65;3.85;;;2.70;54.30;;;;;;5033471;28;20202;-64
2022/04/18 01:34:28;;;;;;;5.90;3.75;;;2.70;54.20;;;;;;5032980;28;20560;-63
2022/04/18 01:36:56;;;;;;;5.35;4.47;;;2.70;54.10;;;;;;5033205;28;20191;-62
2022/04/18 01:39:24;;;;;;;6.88;3.70;;;2.70;54.00;;;;;;5032756;28;20586;-63
2022/04/18 01:41:52;;;;;;;6.47;3.80;;;2.60;54.20;;;;;;5032251;28;20227;-62
2022/04/18 01:44:20;;;;;;;7.13;4.38;;;2.60;54.30;;;;;;5032521;28;20557;-63
2022/04/18 01:46:47;;;;;;;8.88;4.10;;;2.50;53.90;;;;;;5032961;28;20203;-64
2022/04/18 01:49:14;;;;;;;5.40;4.15;;;2.50;54.00;;;;;;5032634;28;20198;-63
2022/04/18 01:51:41;;;;;;;9.18;3.92;;;2.50;53.70;;;;;;5033128;28;20307;-63
2022/04/18 01:54:10;;;;;;;5.93;4.32;;;2.40;54.20;;;;;;5032232;28;20194;-63
2022/04/18 01:56:37;;;;;;;7.15;3.63;;;2.40;55.00;;;;;;5033399;28;20645;-62
2022/04/18 01:59:04;;;;;;;5.75;3.90;;;2.40;54.70;;;;;;5033149;28;20257;-63
2022/04/18 02:01:31;;;;;;;6.45;4.80;;;2.30;55.10;;;;;;5033827;28;20219;-62
2022/04/18 02:03:58;;;;;;;7.20;4.38;;;2.30;55.10;;;;;;5033242;28;20206;-62
2022/04/18 02:06:26;;;;;;;7.35;4.70;;;2.30;55.30;;;;;;5033027;28;20187;-64
2022/04/18 02:08:53;;;;;;;6.13;3.75;;;2.30;55.20;;;;;;5033446;28;20274;-62
2022/04/18 02:11:21;;;;;;;9.27;4.63;;;2.30;55.70;;;;;;5033824;28;20334;-62
2022/04/18 02:13:48;;;;;;;5.22;3.85;;;2.40;56.00;;;;;;5032885;28;20190;-62
2022/04/18 02:16:15;;;;;;;5.60;3.40;;;2.40;55.70;;;;;;5033025;28;20190;-63
2022/04/18 02:18:42;;;;;;;6.28;3.90;;;2.40;55.10;;;;;;5033546;28;20188;-62
2022/04/18 02:21:12;;;;;;;6.35;3.42;;;2.40;55.10;;;;;;5032863;28;20246;-63
2022/04/18 02:23:39;;;;;;;5.22;3.30;;;2.40;54.50;;;;;;5032864;28;20202;-63
2022/04/18 02:26:06;;;;;;;4.47;3.95;;;2.40;53.90;;;;;;5033462;28;20641;-62
2022/04/18 02:28:35;;;;;;;6.13;4.00;;;2.30;53.90;;;;;;5033225;28;20187;-62
2022/04/18 02:31:02;;;;;;;6.63;3.95;;;2.30;54.50;;;;;;5033203;28;20230;-63
2022/04/18 02:33:29;;;;;;;5.28;3.38;;;2.20;55.10;;;;;;5032334;28;20187;-62
2022/04/18 02:35:56;;;;;;;5.28;3.85;;;2.20;55.30;;;;;;5032963;28;20198;-63
2022/04/18 02:38:23;;;;;;;5.68;4.15;;;2.20;54.90;;;;;;5032620;28;20191;-62
2022/04/18 02:40:50;;;;;;;6.22;4.43;;;2.20;54.70;;;;;;5032814;28;20219;-62
2022/04/18 02:43:17;;;;;;;6.55;4.18;;;2.10;54.40;;;;;;5032488;28;20214;-63
2022/04/18 02:45:46;;;;;;;6.85;4.57;;;2.00;54.50;;;;;;5032858;28;20191;-62
2022/04/18 02:48:13;;;;;;;5.40;3.92;;;2.00;54.50;;;;;;5032448;28;20193;-63
2022/04/18 02:50:40;;;;;;;5.50;3.90;;;1.90;54.60;;;;;;5032831;28;20199;-62
2022/04/18 02:53:07;;;;;;;5.95;3.45;;;1.70;55.90;;;;;;5032184;28;20187;-63
2022/04/18 02:55:34;;;;;;;8.50;3.65;;;1.60;54.80;;;;;;5032703;28;20664;-62
2022/04/18 02:58:01;;;;;;;6.40;4.00;;;1.60;55.00;;;;;;5032541;28;20214;-62
2022/04/18 03:00:29;;;;;;;6.20;3.95;;;1.60;55.80;;;;;;5032821;28;20210;-62
2022/04/18 03:02:57;;;;;;;4.63;3.22;;;1.70;56.70;;;;;;5031950;28;20211;-62
2022/04/18 03:05:24;;;;;;;4.20;3.65;;;1.60;56.30;;;;;;5032277;28;20261;-63
2022/04/18 03:07:52;;;;;;;5.93;4.03;;;1.60;57.00;;;;;;5031982;28;20207;-62
2022/04/18 03:11:02;;;;;;;5.82;3.60;;;1.60;57.70;;;;;;5032501;28;20286;-62
2022/04/18 03:13:07;;;;;;;6.13;3.97;;;1.60;57.90;;;;;;5031961;28;20187;-63
2022/04/18 03:15:34;;;;;;;11.35;4.25;;;1.60;57.60;;;;;;5032390;28;20191;-62
2022/04/18 03:18:02;;;;;;;9.05;5.30;;;1.60;57.80;;;;;;5031382;28;20206;-65
2022/04/18 03:20:29;;;;;;;7.78;4.45;;;1.60;57.80;;;;;;5032429;28;20187;-62
2022/04/18 03:22:56;;;;;;;7.80;5.28;;;1.50;58.00;;;;;;5031764;28;20300;-62
2022/04/18 03:25:23;;;;;;;6.00;4.70;;;1.50;58.20;;;;;;5032051;28;20199;-62
2022/04/18 03:27:50;;;;;;;5.38;4.88;;;1.50;58.00;;;;;;5032020;28;20222;-64
2022/04/18 03:30:18;;;;;;;8.73;4.97;;;1.60;58.10;;;;;;5032174;28;20187;-63
2022/04/18 03:32:45;;;;;;;10.40;4.03;;;1.60;58.00;;;;;;5032162;28;20287;-62
2022/04/18 03:35:13;;;;;;;6.00;3.58;;;1.70;58.10;;;;;;5031775;28;20187;-62
2022/04/18 03:40:25;;;;;;;5.78;3.70;;;1.70;57.80;;;;;;5025573;28;20195;-63
2022/04/18 03:42:52;;;;;;;5.30;3.60;;;1.70;57.70;;;;;;5031986;28;20282;-63
2022/04/18 03:45:19;;;;;;;4.90;4.00;;;1.70;57.60;;;;;;5031677;28;20187;-62
2022/04/18 03:47:46;;;;;;;5.25;4.18;;;1.70;57.70;;;;;;5032016;28;20281;-62
2022/04/18 03:50:15;;;;;;;7.00;4.30;;;1.80;57.70;;;;;;5031578;28;20227;-64
2022/04/18 03:52:42;;;;;;;7.13;3.70;;;1.70;57.70;;;;;;5031610;28;20236;-62
2022/04/18 03:55:11;;;;;;;6.00;3.75;;;1.80;57.80;;;;;;5031651;28;20187;-63
2022/04/18 03:57:38;;;;;;;7.32;4.10;;;1.70;57.30;;;;;;5031363;28;20223;-64
2022/04/18 04:00:07;;;;;;;5.57;3.85;;;1.70;58.10;;;;;;5031748;28;20207;-65
2022/04/18 04:02:34;;;;;;;7.05;3.25;;;1.60;58.30;;;;;;5031736;28;20206;-62
2022/04/18 04:05:01;;;;;;;11.20;4.47;;;1.60;59.00;;;;;;5032117;28;20195;-63
2022/04/18 04:07:30;;;;;;;4.97;3.65;;;1.50;58.80;;;;;;5031704;28;20645;-63
2022/04/18 04:09:57;;;;;;;5.28;3.75;;;1.50;58.90;;;;;;5032226;28;20233;-62
2022/04/18 04:12:25;;;;;;;6.43;4.15;;;1.40;58.60;;;;;;5032050;28;20195;-62
2022/04/18 04:14:53;;;;;;;5.45;4.30;;;1.50;58.30;;;;;;5029894;28;20553;-62
2022/04/18 04:17:21;;;;;;;6.38;3.85;;;1.40;57.80;;;;;;5031436;28;20191;-63
2022/04/18 04:19:48;;;;;;;6.90;4.63;;;1.30;58.10;;;;;;5031997;28;20644;-62
2022/04/18 04:22:15;;;;;;;8.27;4.28;;;1.40;58.00;;;;;;5031775;28;20222;-68
2022/04/18 04:24:44;;;;;;;7.28;4.50;;;1.40;58.20;;;;;;5031782;28;20717;-63
2022/04/18 04:27:11;;;;;;;5.00;4.30;;;1.40;58.90;;;;;;5032202;28;20187;-62
2022/04/18 04:29:38;;;;;;;7.88;4.97;;;1.40;58.30;;;;;;5031231;28;20191;-63
2022/04/18 04:32:06;;;;;;;5.97;4.40;;;1.30;58.20;;;;;;5035410;28;20661;-62
2022/04/18 04:34:33;;;;;;;8.75;5.68;;;1.30;58.70;;;;;;5035434;28;20582;-63
2022/04/18 04:37:01;;;;;;;7.53;4.28;;;1.20;58.80;;;;;;5035670;28;20249;-63
2022/04/18 04:39:28;;;;;;;6.32;4.40;;;1.20;58.90;;;;;;5035311;28;20191;-63
2022/04/18 04:41:56;;;;;;;4.72;3.85;;;1.20;58.80;;;;;;5035254;28;20243;-63
2022/04/18 04:44:23;;;;;;;6.70;4.47;;;1.20;58.70;;;;;;5034865;28;20278;-63
2022/04/18 04:46:50;;;;;;;4.53;3.67;;;1.30;58.80;;;;;;5035308;28;20278;-63
2022/04/18 04:49:18;;;;;;;5.97;3.85;;;1.40;58.70;;;;;;5035251;28;20187;-63
2022/04/18 04:51:45;;;;;;;5.05;2.97;;;1.30;58.20;;;;;;5035305;28;20253;-62
2022/04/18 04:54:12;;;;;;;5.28;4.00;;;1.20;59.10;;;;;;5034571;28;20237;-63
2022/04/18 04:56:39;;;;;;;7.88;3.92;;;1.30;59.50;;;;;;5034980;28;20187;-62
2022/04/18 04:59:08;;;;;;;4.22;3.30;;;1.30;59.40;;;;;;5035264;28;20187;-62
2022/04/18 05:01:35;;;;;;;6.00;3.25;;;1.30;59.30;;;;;;5034657;28;20191;-65
2022/04/18 05:04:02;;;;;;;5.88;3.80;;;1.30;59.10;;;;;;5035478;28;20195;-63
2022/04/18 05:06:30;;;;;;;8.15;5.20;;;1.30;59.10;;;;;;5034555;28;20187;-63
2022/04/18 05:08:57;;;;;;;7.70;4.10;;;1.20;59.60;;;;;;5034982;28;20227;-62
2022/04/18 05:11:24;;;;;;;5.07;4.20;;;1.20;60.20;;;;;;5035065;28;20195;-62
2022/04/18 05:13:51;;;;;;;8.70;4.43;;;1.30;60.30;;;;;;5034779;28;20222;-63
2022/04/18 05:16:20;;;;;;;5.07;3.90;;;1.30;60.10;;;;;;5034478;28;20183;-63
2022/04/18 05:18:47;;;;;;;5.07;4.57;;;1.40;60.20;;;;;;5034824;28;20202;-62
2022/04/18 05:21:14;;;;;;;6.82;4.28;;;1.50;60.40;;;;;;5033990;28;20266;-63
2022/04/18 05:23:41;;;;;;;6.05;3.83;;;1.50;60.20;;;;;;5030445;28;20317;-62
2022/04/18 05:26:09;;;;;;;4.82;3.45;;;1.50;60.50;;;;;;5032503;28;20187;-63
2022/04/18 05:28:36;;;;;;;5.53;4.45;;;1.50;61.50;;;;;;5033341;28;20194;-62
2022/04/18 05:31:04;;;;;;;7.05;3.60;;;1.60;62.40;;;;;;5032321;28;20199;-64
2022/04/18 05:33:33;;;;;;;6.13;3.90;;;1.60;62.80;;;;;;5029117;28;20191;-63
2022/04/18 05:36:00;;;;;;;5.38;3.75;;;1.70;62.80;;;;;;5032896;28;21729;-62
2022/04/18 05:38:28;;;;;;;6.82;4.95;;;1.70;63.40;;;;;;5031485;28;20191;-62
2022/04/18 05:40:57;;;;;;;4.25;3.53;;;1.70;64.50;;;;;;5031259;28;20265;-63
2022/04/18 05:43:27;;;;;;;4.15;3.75;;;1.80;65.00;;;;;;5032805;28;20223;-63
2022/04/18 05:46:00;;;;;;;5.18;4.28;;;2.00;65.00;;;;;;5031962;28;20194;-62
2022/04/18 05:48:27;;;;;;;5.60;4.47;;;2.10;64.50;;;;;;5032329;28;20194;-62
2022/04/18 05:50:56;;;;;;;6.55;4.60;;;2.30;64.20;;;;;;5031861;28;20191;-62
2022/04/18 05:53:26;;;;;;;5.75;4.10;;;2.40;64.00;;;;;;5032622;28;20187;-63
2022/04/18 05:55:54;;;;;;;6.22;5.25;;;2.50;64.20;;;;;;5031887;28;20187;-63
2022/04/18 05:58:23;;;;;;;5.72;4.10;;;2.70;64.00;;;;;;5032582;28;20607;-63
2022/04/18 06:00:51;;;;;;;6.35;4.57;;;2.80;63.50;;;;;;5032260;28;20587;-63
2022/04/18 06:03:18;;;;;;;6.70;4.43;;;2.90;63.00;;;;;;5032262;28;20585;-64
2022/04/18 06:05:46;;;;;;;4.30;3.53;;;3.10;63.00;;;;;;5028215;28;20638;-63
2022/04/18 06:08:14;;;;;;;6.97;4.80;;;3.10;62.10;;;;;;5032442;28;20206;-63
2022/04/18 06:10:41;;;;;;;6.00;4.40;;;3.30;62.80;;;;;;5031775;28;20229;-63
2022/04/18 06:13:09;;;;;;;5.68;3.85;;;3.40;62.70;;;;;;5031951;28;20274;-63
2022/04/18 06:15:37;;;;;;;7.45;4.75;;;3.60;62.40;;;;;;5031453;28;20641;-63
2022/04/18 06:18:05;;;;;;;7.55;4.70;;;3.80;62.60;;;;;;5032285;28;20217;-63
2022/04/18 06:20:32;;;;;;;4.95;3.95;;;3.90;61.70;;;;;;5032679;28;20195;-62
2022/04/18 06:22:59;;;;;;;5.88;4.53;;;4.00;61.90;;;;;;5031343;28;20219;-64
2022/04/18 06:25:30;;;;;;;5.75;3.90;;;4.20;61.00;;;;;;5032268;28;20195;-63
2022/04/18 06:27:57;;;;;;;4.82;3.60;;;4.30;59.60;;;;;;5031714;28;20278;-63
2022/04/18 06:30:24;;;;;;;4.50;3.40;;;4.50;59.60;;;;;;5031571;28;20257;-63
2022/04/18 06:32:52;;;;;;;4.13;3.28;;;4.60;58.80;;;;;;5031650;28;20189;-63
2022/04/18 06:35:19;;;;;;;4.50;3.78;;;4.80;57.90;;;;;;5031985;28;20205;-63
2022/04/18 06:37:46;;;;;;;5.10;3.60;;;4.90;58.10;;;;;;5031514;28;20217;-63
2022/04/18 06:40:14;;;;;;;5.22;3.75;;;5.10;57.90;;;;;;5028972;28;20202;-64
2022/04/18 06:42:43;;;;;;;3.95;3.35;;;5.20;57.90;;;;;;5030382;28;20734;-65
2022/04/18 06:45:11;;;;;;;4.20;3.20;;;5.40;58.20;;;;;;5031194;28;20194;-63
2022/04/18 06:47:38;;;;;;;5.20;3.47;;;5.60;58.00;;;;;;5029887;28;20184;-65
2022/04/18 06:50:10;;;;;;;3.47;2.90;;;5.80;56.90;;;;;;5026960;28;20195;-63
2022/04/18 06:52:39;;;;;;;4.20;3.10;;;5.90;55.90;;;;;;5029835;28;20198;-64
2022/04/18 06:55:08;;;;;;;3.40;2.80;;;6.00;55.50;;;;;;5031780;28;20664;-65
2022/04/18 06:57:35;;;;;;;3.95;3.30;;;6.10;55.20;;;;;;5027122;28;20530;-64
2022/04/18 07:00:06;;;;;;;4.30;3.40;;;6.30;55.00;;;;;;5031250;28;20767;-62
2022/04/18 07:02:33;;;;;;;4.75;3.15;;;6.60;55.50;;;;;;5030529;28;20214;-63
2022/04/18 07:05:00;;;;;;;4.43;3.50;;;6.60;54.40;;;;;;5030860;28;20187;-63
2022/04/18 07:07:28;;;;;;;4.97;3.25;;;6.80;54.30;;;;;;5030885;28;20190;-63
2022/04/18 07:09:55;;;;;;;4.43;3.03;;;7.10;54.20;;;;;;5026894;28;20194;-64
2022/04/18 07:12:23;;;;;;;6.18;3.05;;;7.30;52.30;;;;;;5030210;28;20256;-63
2022/04/18 07:14:51;;;;;;;3.70;2.30;;;7.50;51.20;;;;;;5029408;28;20187;-63
2022/04/18 07:17:20;;;;;;;4.03;2.95;;;7.80;51.50;;;;;;5029988;28;20207;-63
2022/04/18 07:19:47;;;;;;;4.05;3.10;;;8.00;50.70;;;;;;5030345;28;20206;-63
2022/04/18 07:22:14;;;;;;;5.88;3.72;;;8.30;50.50;;;;;;5031003;28;20202;-63
2022/04/18 07:24:42;;;;;;;4.18;2.65;;;8.50;50.50;;;;;;5029501;28;20219;-66
2022/04/18 07:27:09;;;;;;;4.65;3.70;;;8.70;50.00;;;;;;5030918;28;20191;-64
2022/04/18 07:29:36;;;;;;;7.22;3.22;;;8.90;50.20;;;;;;5031591;28;20195;-64
2022/04/18 07:32:03;;;;;;;3.53;2.80;;;9.00;48.70;;;;;;5031458;28;20282;-63
2022/04/18 07:34:33;;;;;;;5.15;3.20;;;9.20;49.40;;;;;;5028788;28;20187;-63
2022/04/18 07:36:59;;;;;;;4.55;2.75;;;9.60;50.70;;;;;;5030956;28;20195;-63
2022/04/18 07:39:26;;;;;;;8.18;3.38;;;10.10;51.30;;;;;;5028011;28;20202;-63
2022/04/18 07:41:53;;;;;;;3.65;3.15;;;10.90;53.60;;;;;;5029929;28;20314;-64
2022/04/18 07:44:22;;;;;;;6.50;2.95;;;11.60;51.60;;;;;;5030351;28;20226;-63
2022/04/18 07:46:48;;;;;;;3.92;3.22;;;12.40;52.90;;;;;;5031065;28;20229;-64
2022/04/18 07:49:15;;;;;;;4.80;2.97;;;13.10;50.80;;;;;;5030895;28;20715;-64
2022/04/18 07:51:44;;;;;;;5.57;4.13;;;13.80;46.20;;;;;;5030493;28;20226;-64
2022/04/18 07:54:14;;;;;;;5.68;2.55;;;14.40;42.70;;;;;;5028054;28;20226;-64
2022/04/18 07:56:43;;;;;;;5.77;3.30;;;15.00;41.80;;;;;;5029514;28;20187;-65
2022/04/18 07:59:10;;;;;;;3.40;2.77;;;15.60;38.90;;;;;;5031045;28;20442;-65
2022/04/18 08:01:38;;;;;;;5.53;3.00;;;16.00;40.70;;;;;;5030858;28;20434;-69
2022/04/18 08:04:05;;;;;;;4.03;2.20;;;16.70;39.20;;;;;;5031224;28;20968;-64
2022/04/18 08:06:34;;;;;;;4.13;3.30;;;17.30;37.60;;;;;;5035398;28;20440;-65
2022/04/18 08:09:03;;;;;;;4.93;2.80;;;17.80;35.80;;;;;;5034017;28;20433;-64
2022/04/18 08:11:30;;;;;;;3.37;2.20;;;18.00;33.40;;;;;;5034650;28;20457;-64
2022/04/18 08:13:57;;;;;;;4.07;2.60;;;18.40;32.60;;;;;;5034306;28;20452;-64
2022/04/18 08:16:24;;;;;;;3.83;2.63;;;18.90;32.90;;;;;;5035218;28;20488;-64
2022/04/18 08:18:51;;;;;;;3.30;2.60;;;19.40;32.40;;;;;;5033520;28;20442;-65
2022/04/18 08:21:19;;;;;;;2.97;2.10;;;19.80;31.70;;;;;;5034077;28;20940;-65
2022/04/18 08:23:48;;;;;;;3.17;2.20;;;20.20;32.30;;;;;;5033925;28;20487;-64
2022/04/18 08:26:17;;;;;;;3.43;2.57;;;20.60;30.00;;;;;;5034316;28;20791;-64
2022/04/18 08:28:44;;;;;;;3.93;2.37;;;21.00;30.00;;;;;;5034705;28;20430;-64
2022/04/18 08:31:11;;;;;;;3.53;2.13;;;21.40;30.20;;;;;;5034419;28;20941;-65
2022/04/18 08:33:38;;;;;;;4.57;2.20;;;22.00;29.30;;;;;;5034341;28;20515;-64
2022/04/18 08:36:07;;;;;;;3.30;2.00;;;22.40;27.30;;;;;;5034048;28;20845;-65
2022/04/18 08:38:34;;;;;;;6.10;2.50;;;22.50;27.10;;;;;;5029876;28;20996;-62
2022/04/18 08:41:04;;;;;;;3.13;1.97;;;22.60;26.80;;;;;;5033023;28;20580;-62
2022/04/18 08:43:32;;;;;;;3.27;2.50;;;22.80;25.70;;;;;;5032551;28;20481;-62
2022/04/18 08:45:59;;;;;;;4.43;2.53;;;23.10;25.60;;;;;;5032986;28;20444;-63
2022/04/18 08:54:00;;;;;;;3.57;2.50;;;24.20;25.10;;;;;;5032970;28;21608;-63
2022/04/18 08:56:27;;;;;;;10.90;3.80;;;24.50;22.80;;;;;;5031549;28;20552;-62
2022/04/18 08:58:56;;;;;;;4.03;2.47;;;24.70;23.10;;;;;;5032552;28;20548;-62
2022/04/18 09:01:24;;;;;;;4.57;2.40;;;25.10;22.30;;;;;;5032889;28;20804;-63
2022/04/18 09:03:51;;;;;;;3.93;1.90;;;25.30;20.90;;;;;;5032506;28;21011;-64
2022/04/18 09:06:18;;;;;;;2.83;1.80;;;25.10;19.90;;;;;;5032892;28;20433;-64
2022/04/18 09:08:51;;;;;;;4.07;2.13;;;25.10;20.50;;;;;;5033340;28;20500;-62
2022/04/18 09:11:28;;;;;;;3.23;2.03;;;25.00;21.30;;;;;;5033628;28;20916;-62
2022/04/18 09:14:16;;;;;;;4.20;2.50;;;25.20;21.00;;;;;;5033180;28;20508;-62
2022/04/18 09:16:44;;;;;;;3.10;2.30;;;25.40;19.00;;;;;;5032311;28;20863;-63
2022/04/18 09:19:16;;;;;;;4.20;2.60;;;25.20;20.50;;;;;;5031763;28;20454;-65
2022/04/18 09:21:45;;;;;;;3.50;2.30;;;25.10;19.00;;;;;;5033002;28;20434;-63
2022/04/18 09:24:32;;;;;;;3.40;2.30;;;24.90;18.40;;;;;;5029200;28;20481;-62
2022/04/18 09:27:00;;;;;;;4.63;2.30;;;24.80;18.80;;;;;;5032308;28;20480;-62
2022/04/18 09:29:33;;;;;;;3.93;2.20;;;25.20;18.30;;;;;;5033203;28;20445;-62
2022/04/18 09:32:01;;;;;;;5.10;2.20;;;25.10;17.50;;;;;;5032498;28;20953;-62
2022/04/18 09:34:28;;;;;;;4.57;2.60;;;24.70;16.50;;;;;;5032529;28;20441;-62
2022/04/18 09:37:10;;;;;;;4.03;2.20;;;24.30;18.80;;;;;;5032585;28;20802;-62
2022/04/18 09:39:38;;;;;;;4.80;1.97;;;24.20;18.90;;;;;;5031928;28;20442;-63
2022/04/18 09:42:14;;;;;;;3.40;2.00;;;24.60;19.20;;;;;;5032208;28;20473;-63
2022/04/18 09:44:43;;;;;;;5.03;2.10;;;25.10;18.30;;;;;;5032842;28;20539;-64
2022/04/18 09:47:17;;;;;;;3.20;1.87;;;25.10;17.70;;;;;;5031561;28;20426;-65
2022/04/18 09:49:45;;;;;;;3.40;2.07;;;25.20;17.90;;;;;;5032474;28;20435;-64
2022/04/18 09:52:15;;;;;;;3.00;1.77;;;25.40;17.50;;;;;;5032824;28;20944;-64
2022/04/18 09:54:45;;;;;;;2.97;2.10;;;25.30;16.20;;;;;;5030057;28;20446;-65
2022/04/18 09:57:13;;;;;;;3.50;1.93;;;25.10;15.90;;;;;;5032802;28;20442;-65
2022/04/18 09:59:43;;;;;;;2.90;1.90;;;24.70;16.20;;;;;;5032271;28;20445;-65
2022/04/18 10:02:14;;;;;;;3.23;2.13;;;24.10;15.90;;;;;;5032488;28;20524;-65
2022/04/18 10:04:42;;;;;;;4.20;1.90;;;23.80;16.80;;;;;;5031932;28;21003;-64
2022/04/18 10:07:10;;;;;;;3.23;1.90;;;23.40;16.00;;;;;;5032016;28;20444;-65
2022/04/18 10:09:40;;;;;;;3.33;1.90;;;23.20;16.30;;;;;;5030505;28;20449;-64
2022/04/18 10:12:09;;;;;;;4.53;2.20;;;23.30;18.60;;;;;;5032152;28;20434;-66
2022/04/18 10:14:37;;;;;;;3.40;1.90;;;23.80;18.60;;;;;;5031541;28;20426;-65
2022/04/18 10:17:08;;;;;;;3.20;1.70;;;23.80;15.80;;;;;;5031587;28;20442;-64
2022/04/18 10:20:10;;;;;;;4.40;2.20;;;23.50;19.20;;;;;;5032668;28;20525;-65
2022/04/18 10:23:04;;;;;;;6.37;2.27;;;23.70;16.70;;;;;;5015866;28;20515;-64
2022/04/18 10:25:50;;;;;;;3.40;1.60;;;23.60;18.70;;;;;;5031890;28;20433;-65
2022/04/18 10:28:19;;;;;;;3.60;1.80;;;23.80;19.00;;;;;;5029305;28;20453;-66
2022/04/18 10:30:49;;;;;;;3.13;2.03;;;23.90;18.10;;;;;;5031727;28;20449;-64
2022/04/18 10:33:19;;;;;;;3.70;2.00;;;24.00;16.40;;;;;;5031538;28;20929;-64
2022/04/18 10:35:52;;;;;;;4.33;2.33;;;23.70;17.60;;;;;;5030455;28;20438;-64
2022/04/18 10:38:23;;;;;;;4.30;2.00;;;23.50;18.20;;;;;;5031050;28;20444;-65
2022/04/18 10:40:50;;;;;;;2.50;1.50;;;23.30;18.00;;;;;;5031622;28;20462;-64
2022/04/18 10:43:18;;;;;;;3.10;2.20;;;22.90;19.20;;;;;;5031355;28;20529;-64
2022/04/18 10:45:45;;;;;;;2.67;1.80;;;22.90;19.00;;;;;;5031763;28;20529;-64
2022/04/18 10:48:13;;;;;;;6.50;2.20;;;22.70;17.90;;;;;;5030595;28;20482;-64
2022/04/18 10:50:47;;;;;;;3.57;1.80;;;22.40;18.40;;;;;;5031974;28;20445;-64
2022/04/18 10:53:20;;;;;;;3.33;1.80;;;22.00;18.60;;;;;;5031050;28;20503;-64
2022/04/18 10:56:11;;;;;;;3.30;1.87;;;21.90;19.70;;;;;;5027016;28;20897;-64
2022/04/18 10:58:43;;;;;;;3.27;1.90;;;21.80;18.50;;;;;;5027477;28;20438;-64
2022/04/18 11:01:12;;;;;;;3.57;1.70;;;21.60;19.30;;;;;;5031667;28;20783;-66
2022/04/18 11:03:51;;;;;;;4.00;1.90;;;21.70;19.80;;;;;;5030198;28;20814;-66
2022/04/18 11:06:58;;;;;;;4.67;1.70;;;21.60;18.10;;;;;;5028256;28;20488;-64
2022/04/18 11:09:26;;;;;;;3.80;2.20;;;21.40;18.90;;;;;;5028661;28;20995;-64
2022/04/18 11:12:08;;;;;;;2.73;1.70;;;21.30;18.00;;;;;;5029682;28;20987;-65
2022/04/18 11:14:51;;;;;;;3.33;1.80;;;21.20;17.20;;;;;;5030525;28;20440;-65
2022/04/18 11:17:32;;;;;;;3.07;2.17;;;20.80;19.10;;;;;;5028215;28;21079;-64
2022/04/18 11:20:33;;;;;;;4.33;1.50;;;20.60;17.90;;;;;;5024558;28;20446;-64
2022/04/18 11:23:23;;;;;;;2.70;1.70;;;20.60;18.90;;;;;;5030033;28;20445;-62
2022/04/18 11:25:52;;;;;;;2.50;1.50;;;20.60;18.80;;;;;;5025054;28;20429;-61
2022/04/18 11:28:20;;;;;;;2.53;1.67;;;20.60;18.80;;;;;;5029251;28;20539;-62
2022/04/18 11:30:47;;;;;;;2.67;1.70;;;20.60;18.40;;;;;;5030432;28;20442;-62
2022/04/18 11:33:14;;;;;;;5.20;2.40;;;20.80;18.60;;;;;;5030870;28;20448;-62
2022/04/18 11:35:41;;;;;;;3.03;1.60;;;20.80;18.50;;;;;;5030803;28;20496;-61
2022/04/18 11:38:10;;;;;;;2.70;1.60;;;20.60;18.80;;;;;;5030611;28;20446;-61
2022/04/18 11:40:39;;;;;;;5.70;1.60;;;20.70;18.80;;;;;;5030083;28;20473;-62
2022/04/18 11:43:13;;;;;;;3.40;1.77;;;20.70;19.10;;;;;;5030985;28;20442;-62
2022/04/18 11:45:41;;;;;;;2.60;1.53;;;20.80;19.10;;;;;;5030629;28;20492;-61
2022/04/18 11:48:11;;;;;;;4.67;2.17;;;20.90;16.60;;;;;;5030173;28;20930;-61
2022/04/18 11:50:43;;;;;;;2.60;1.67;;;20.90;16.10;;;;;;5031034;28;20441;-61
2022/04/18 11:53:11;;;;;;;2.33;1.23;;;20.50;15.70;;;;;;5030627;28;20448;-61
2022/04/18 11:55:45;;;;;;;4.30;1.97;;;20.40;18.10;;;;;;5030704;28;20436;-61
2022/04/18 11:58:13;;;;;;;2.90;1.57;;;20.40;16.50;;;;;;5030648;28;20440;-63
2022/04/18 12:09:02;;;;;;;2.90;1.90;;;20.50;18.60;;;;;;5030342;28;20784;-61
2022/04/18 12:11:35;;;;;;;2.77;1.87;;;20.40;16.50;;;;;;5030752;28;20437;-61
2022/04/18 12:14:03;;;;;;;3.10;1.70;;;20.20;17.70;;;;;;5030552;28;20481;-62
2022/04/18 12:16:32;;;;;;;3.20;2.00;;;20.10;18.80;;;;;;5030598;28;20442;-61
2022/04/18 12:19:00;;;;;;;6.87;1.70;;;20.00;18.60;;;;;;5030544;28;20453;-61
2022/04/18 12:21:27;;;;;;;3.17;1.70;;;20.10;19.20;;;;;;5030088;28;20493;-63
2022/04/18 12:23:56;;;;;;;1.87;1.13;;;20.10;18.30;;;;;;5029828;28;20485;-62
2022/04/18 12:26:27;;;;;;;5.80;1.87;;;20.10;18.10;;;;;;5030426;28;20442;-62
2022/04/18 12:29:01;;;;;;;3.33;2.00;;;20.10;18.40;;;;;;5030137;28;20772;-64
2022/04/18 12:31:28;;;;;;;2.77;1.43;;;20.10;16.80;;;;;;5029353;28;20473;-62
2022/04/18 12:33:55;;;;;;;3.00;1.87;;;19.80;16.70;;;;;;5029311;28;20444;-61
2022/04/18 12:36:24;;;;;;;4.83;2.07;;;19.80;18.80;;;;;;5029644;28;20442;-62
2022/04/18 12:38:52;;;;;;;2.90;1.50;;;19.70;18.40;;;;;;5030156;28;20994;-62
2022/04/18 12:41:29;;;;;;;2.90;1.50;;;19.70;18.50;;;;;;5030325;28;20474;-61
2022/04/18 12:43:56;;;;;;;3.50;1.10;;;19.80;17.10;;;;;;5029318;28;20470;-61
2022/04/18 12:46:31;;;;;;;2.37;1.60;;;19.70;17.60;;;;;;5030344;28;20460;-61
2022/04/18 12:49:04;;;;;;;3.37;1.53;;;19.80;17.10;;;;;;5029962;28;20448;-62
2022/04/18 12:51:32;;;;;;;3.43;1.77;;;19.80;16.60;;;;;;5027454;28;20437;-62
2022/04/18 12:53:59;;;;;;;3.13;1.53;;;19.70;16.80;;;;;;5033242;28;20433;-61
2022/04/18 12:56:28;;;;;;;3.83;1.70;;;19.70;17.20;;;;;;5034101;28;20928;-64
2022/04/18 12:59:06;;;;;;;2.37;1.70;;;19.60;16.80;;;;;;5033210;28;20488;-64
2022/04/18 13:01:36;;;;;;;3.27;1.53;;;19.50;16.60;;;;;;5033677;28;20437;-63
2022/04/18 13:04:05;;;;;;;4.83;2.70;;;19.40;18.10;;;;;;5033470;28;20472;-64
2022/04/18 13:06:33;;;;;;;3.07;1.30;;;19.50;18.70;;;;;;5030033;28;20768;-63
2022/04/18 13:09:06;;;;;;;4.63;1.50;;;19.50;16.90;;;;;;5033700;28;20798;-64
2022/04/18 13:11:38;;;;;;;2.60;1.40;;;19.30;17.10;;;;;;5033256;28;20442;-64
2022/04/18 13:14:06;;;;;;;3.47;1.57;;;19.00;16.20;;;;;;5033885;28;20449;-63
2022/04/18 13:16:35;;;;;;;2.80;1.47;;;18.90;17.90;;;;;;5033714;28;21176;-63
2022/04/18 13:19:05;;;;;;;3.80;1.83;;;18.90;19.00;;;;;;5033696;28;20480;-65
2022/04/18 13:21:33;;;;;;;3.27;1.60;;;18.80;18.40;;;;;;5033699;28;20849;-64